Time,TemperatureF,DewpointF,PressureIn,WindDirection,WindDirectionDegrees,WindSpeedMPH,WindSpeedGustMPH,Humidity,HourlyPrecipIn,Conditions,Clouds,dailyrainin,SoftwareType,DateUTC
2013-03-29 00:00:00,49.0,47.0,30.05,WSW,244,0.0,0.0,94,0.00,,,0.00,,2013-03-29 07:00:00,
2013-03-29 00:10:00,49.7,48.0,30.04,WSW,244,0.0,0.0,95,0.00,,,0.00,,2013-03-29 07:10:00,
2013-03-29 00:20:00,50.3,49.0,30.04,WSW,244,1.0,1.0,95,0.00,,,0.00,,2013-03-29 07:20:00,
2013-03-29 00:30:00,49.9,48.0,30.04,WSW,244,0.0,1.0,94,0.00,,,0.00,,2013-03-29 07:30:00,
2013-03-29 00:40:00,49.7,48.0,30.04,WSW,244,0.0,0.0,94,0.00,,,0.00,,2013-03-29 07:40:00,
2013-03-29 00:50:00,49.7,48.0,30.04,WSW,244,0.0,0.0,94,0.00,,,0.00,,2013-03-29 07:50:00,
2013-03-29 01:00:00,49.8,48.0,30.04,WSW,244,0.0,0.0,94,0.00,,,0.00,,2013-03-29 08:00:00,
2013-03-29 01:10:00,49.9,49.0,30.04,WSW,244,0.0,0.0,95,0.00,,,0.00,,2013-03-29 08:10:00,
2013-03-29 01:20:00,49.9,49.0,30.03,WSW,244,0.0,0.0,95,0.00,,,0.00,,2013-03-29 08:20:00,
2013-03-29 01:30:00,49.4,48.0,30.03,WSW,244,0.0,1.0,94,0.00,,,0.00,,2013-03-29 08:30:00,
2013-03-29 01:40:00,48.8,47.0,30.03,WSW,244,0.0,0.0,94,0.00,,,0.00,,2013-03-29 08:40:00,
2013-03-29 01:50:00,48.3,47.0,30.02,WSW,244,1.0,1.0,94,0.00,,,0.00,,2013-03-29 08:50:00,
2013-03-29 02:00:00,47.7,46.0,30.02,WSW,244,0.0,1.0,94,0.00,,,0.00,,2013-03-29 09:00:00,
2013-03-29 02:10:00,47.2,46.0,30.02,WSW,244,0.0,1.0,94,0.00,,,0.00,,2013-03-29 09:10:00,
2013-03-29 02:20:00,46.7,45.0,30.02,WSW,244,0.0,1.0,94,0.00,,,0.00,,2013-03-29 09:20:00,
2013-03-29 02:30:00,46.4,45.0,30.02,WSW,244,0.0,1.0,94,0.00,,,0.00,,2013-03-29 09:30:00,
2013-03-29 02:40:00,46.5,45.0,30.02,WSW,244,0.0,1.0,94,0.00,,,0.00,,2013-03-29 09:40:00,
2013-03-29 02:50:00,46.7,45.0,30.02,WSW,244,0.0,0.0,95,0.00,,,0.00,,2013-03-29 09:50:00,
2013-03-29 03:00:00,46.8,45.0,30.02,WSW,244,0.0,0.0,95,0.00,,,0.00,,2013-03-29 10:00:00,
2013-03-29 03:10:00,46.9,46.0,30.02,WSW,244,0.0,1.0,95,0.00,,,0.00,,2013-03-29 10:10:00,
2013-03-29 03:20:00,46.8,45.0,30.01,WSW,244,1.0,1.0,95,0.00,,,0.00,,2013-03-29 10:20:00,
2013-03-29 03:30:00,46.4,45.0,30.01,WSW,244,0.0,1.0,94,0.00,,,0.00,,2013-03-29 10:30:00,
2013-03-29 03:40:00,46.1,45.0,30.02,WSW,244,0.0,0.0,95,0.00,,,0.00,,2013-03-29 10:40:00,
2013-03-29 03:50:00,45.8,44.0,30.02,WSW,244,0.0,1.0,94,0.00,,,0.00,,2013-03-29 10:50:00,
2013-03-29 04:00:00,45.5,44.0,30.01,WSW,244,0.0,1.0,94,0.00,,,0.00,,2013-03-29 11:00:00,
2013-03-29 04:10:00,45.0,43.0,30.01,WSW,244,0.0,1.0,94,0.00,,,0.00,,2013-03-29 11:10:00,
2013-03-29 04:20:00,45.1,44.0,30.01,WSW,244,0.0,0.0,95,0.00,,,0.00,,2013-03-29 11:20:00,
2013-03-29 04:30:00,45.2,44.0,30.02,WSW,244,0.0,0.0,95,0.00,,,0.00,,2013-03-29 11:30:00,
2013-03-29 04:40:00,45.1,44.0,30.01,WSW,244,1.0,2.0,95,0.00,,,0.00,,2013-03-29 11:40:00,
2013-03-29 04:50:00,44.9,44.0,30.02,WSW,244,0.0,0.0,95,0.00,,,0.00,,2013-03-29 11:50:00,
2013-03-29 05:00:00,45.0,44.0,30.01,WSW,244,0.0,1.0,95,0.00,,,0.00,,2013-03-29 12:00:00,
2013-03-29 05:10:00,45.1,44.0,30.01,WSW,244,0.0,0.0,95,0.00,,,0.00,,2013-03-29 12:10:00,
2013-03-29 05:20:00,45.1,44.0,30.01,WSW,244,0.0,1.0,95,0.00,,,0.00,,2013-03-29 12:20:00,
2013-03-29 05:30:00,45.0,44.0,30.01,WSW,244,0.0,0.0,95,0.00,,,0.00,,2013-03-29 12:30:00,
2013-03-29 05:40:00,44.6,43.0,30.00,WSW,244,0.0,0.0,95,0.00,,,0.00,,2013-03-29 12:40:00,
2013-03-29 05:50:00,44.1,43.0,30.00,WSW,244,0.0,1.0,95,0.00,,,0.00,,2013-03-29 12:50:00,
2013-03-29 06:00:00,43.5,42.0,30.00,WSW,244,0.0,0.0,94,0.00,,,0.00,,2013-03-29 13:00:00,
2013-03-29 06:10:00,43.6,42.0,30.01,WSW,244,1.0,2.0,95,0.00,,,0.00,,2013-03-29 13:10:00,
2013-03-29 06:22:00,43.6,42.0,30.01,WSW,244,0.0,0.0,95,0.00,,,0.00,,2013-03-29 13:22:00,
2013-03-29 06:32:00,43.5,42.0,30.01,WSW,244,0.0,0.0,95,0.00,,,0.00,,2013-03-29 13:32:00,
2013-03-29 06:42:00,43.3,42.0,30.01,WSW,244,0.0,0.0,95,0.00,,,0.00,,2013-03-29 13:42:00,
2013-03-29 06:52:00,43.3,42.0,30.01,WSW,244,0.0,0.0,95,0.00,,,0.00,,2013-03-29 13:52:00,
2013-03-29 07:02:00,43.1,42.0,30.01,WSW,244,0.0,1.0,95,0.00,,,0.00,,2013-03-29 14:02:00,
2013-03-29 07:10:00,42.9,42.0,30.02,WSW,244,0.0,0.0,95,0.00,,,0.00,,2013-03-29 14:10:00,
2013-03-29 07:20:00,43.0,42.0,30.02,WSW,244,0.0,0.0,95,0.00,,,0.00,,2013-03-29 14:20:00,
2013-03-29 07:30:00,43.1,42.0,30.02,WSW,244,1.0,1.0,95,0.00,,,0.00,,2013-03-29 14:30:00,
2013-03-29 07:40:00,43.7,42.0,30.02,WSW,244,0.0,0.0,95,0.00,,,0.00,,2013-03-29 14:40:00,
2013-03-29 07:50:00,45.6,45.0,30.02,WSW,244,0.0,0.0,96,0.00,,,0.00,,2013-03-29 14:50:00,
2013-03-29 08:00:00,46.7,46.0,30.02,WSW,244,0.0,0.0,96,0.00,,,0.00,,2013-03-29 15:00:00,
2013-03-29 08:10:00,48.7,48.0,30.02,WSW,244,0.0,1.0,96,0.00,,,0.00,,2013-03-29 15:10:00,
2013-03-29 08:20:00,51.3,50.0,30.02,SE,126,6.0,9.0,96,0.00,,,0.00,,2013-03-29 15:20:00,
2013-03-29 08:30:00,52.3,51.0,30.02,ESE,115,8.0,9.0,96,0.00,,,0.01,,2013-03-29 15:30:00,
2013-03-29 08:40:00,52.3,51.0,30.03,East,101,3.0,7.0,96,0.00,,,0.01,,2013-03-29 15:40:00,
2013-03-29 08:50:00,53.3,52.0,30.04,ESE,109,4.0,7.0,96,0.00,,,0.01,,2013-03-29 15:50:00,
2013-03-29 09:00:00,53.4,52.0,30.04,ESE,108,5.0,7.0,94,0.00,,,0.01,,2013-03-29 16:00:00,
2013-03-29 09:10:00,53.6,51.0,30.04,ESE,117,3.0,6.0,92,0.00,,,0.01,,2013-03-29 16:10:00,
2013-03-29 09:20:00,54.3,52.0,30.04,SE,124,3.0,4.0,92,0.00,,,0.01,,2013-03-29 16:20:00,
2013-03-29 09:30:00,55.8,53.0,30.05,ESE,116,3.0,5.0,91,0.00,,,0.01,,2013-03-29 16:30:00,
2013-03-29 09:40:00,56.1,53.0,30.05,ESE,107,5.0,8.0,88,0.00,,,0.01,,2013-03-29 16:40:00,
2013-03-29 09:50:00,55.0,52.0,30.06,SW,228,5.0,9.0,89,0.00,,,0.01,,2013-03-29 16:50:00,
2013-03-29 10:00:00,53.7,51.0,30.06,ESE,121,4.0,5.0,90,0.00,,,0.01,,2013-03-29 17:00:00,
2013-03-29 10:10:00,53.4,51.0,30.06,West,262,1.0,6.0,91,0.00,,,0.01,,2013-03-29 17:10:00,
2013-03-29 10:20:00,55.0,52.0,30.07,SSW,213,2.0,5.0,90,0.00,,,0.01,,2013-03-29 17:20:00,
2013-03-29 10:30:00,56.2,53.0,30.06,SE,132,1.0,4.0,90,0.00,,,0.01,,2013-03-29 17:30:00,
2013-03-29 10:40:00,57.8,53.0,30.06,East,80,5.0,5.0,84,0.00,,,0.01,,2013-03-29 17:40:00,
2013-03-29 10:50:00,59.1,54.0,30.06,ESE,117,0.0,2.0,84,0.00,,,0.01,,2013-03-29 17:50:00,
2013-03-29 11:00:00,61.9,56.0,30.06,SSW,209,2.0,5.0,80,0.00,,,0.01,,2013-03-29 18:00:00,
2013-03-29 11:10:00,59.3,53.0,30.07,SW,225,2.0,7.0,80,0.00,,,0.01,,2013-03-29 18:10:00,
2013-03-29 11:20:00,59.2,53.0,30.07,ESE,118,8.0,8.0,79,0.00,,,0.01,,2013-03-29 18:20:00,
2013-03-29 11:30:00,58.4,52.0,30.07,ESE,117,7.0,9.0,80,0.00,,,0.01,,2013-03-29 18:30:00,
2013-03-29 11:40:00,58.1,52.0,30.07,SE,126,4.0,9.0,81,0.00,,,0.01,,2013-03-29 18:40:00,
2013-03-29 11:50:00,58.6,53.0,30.08,SE,140,2.0,7.0,83,0.00,,,0.01,,2013-03-29 18:50:00,
2013-03-29 12:00:00,59.6,53.0,30.08,WSW,252,3.0,8.0,78,0.00,,,0.01,,2013-03-29 19:00:00,
2013-03-29 12:10:00,58.2,52.0,30.08,SW,226,6.0,10.0,80,0.00,,,0.01,,2013-03-29 19:10:00,
2013-03-29 12:20:00,58.4,53.0,30.08,East,101,2.0,8.0,81,0.00,,,0.01,,2013-03-29 19:20:00,
2013-03-29 12:30:00,59.2,53.0,30.08,ESE,117,7.0,10.0,79,0.00,,,0.01,,2013-03-29 19:30:00,
2013-03-29 12:40:00,57.2,52.0,30.08,ESE,112,4.0,8.0,83,0.00,,,0.01,,2013-03-29 19:40:00,
2013-03-29 12:50:00,58.3,53.0,30.07,SW,232,5.0,8.0,84,0.00,,,0.01,,2013-03-29 19:50:00,
2013-03-29 13:00:00,59.6,54.0,30.07,South,191,3.0,8.0,81,0.00,,,0.01,,2013-03-29 20:00:00,
2013-03-29 13:10:00,59.9,53.0,30.06,WSW,244,3.0,5.0,79,0.00,,,0.01,,2013-03-29 20:10:00,
2013-03-29 13:20:00,62.7,54.0,30.06,SSW,193,5.0,8.0,74,0.00,,,0.01,,2013-03-29 20:20:00,
2013-03-29 13:30:00,60.0,52.0,30.07,SW,221,4.0,10.0,75,0.00,,,0.01,,2013-03-29 20:30:00,
2013-03-29 13:40:00,58.1,52.0,30.06,SW,230,7.0,8.0,80,0.00,,,0.01,,2013-03-29 20:40:00,
2013-03-29 13:50:00,58.7,53.0,30.06,WNW,291,5.0,9.0,80,0.00,,,0.01,,2013-03-29 20:50:00,
2013-03-29 14:00:00,60.9,54.0,30.06,SW,227,2.0,6.0,78,0.00,,,0.01,,2013-03-29 21:00:00,
2013-03-29 14:10:00,63.1,55.0,30.05,SSW,206,1.0,3.0,76,0.00,,,0.01,,2013-03-29 21:10:00,
2013-03-29 14:20:00,63.8,55.0,30.05,ESE,106,7.0,8.0,73,0.00,,,0.01,,2013-03-29 21:20:00,
2013-03-29 14:30:00,62.1,55.0,30.04,SW,216,1.0,8.0,77,0.00,,,0.01,,2013-03-29 21:30:00,
2013-03-29 14:40:00,63.4,54.0,30.04,WSW,256,5.0,9.0,71,0.00,,,0.01,,2013-03-29 21:40:00,
2013-03-29 14:50:00,60.6,53.0,30.04,SW,215,3.0,8.0,76,0.00,,,0.01,,2013-03-29 21:50:00,
2013-03-29 15:00:00,60.2,53.0,30.04,SW,226,11.0,11.0,77,0.00,,,0.01,,2013-03-29 22:00:00,
2013-03-29 15:10:00,59.5,53.0,30.04,SSE,154,6.0,9.0,79,0.00,,,0.01,,2013-03-29 22:10:00,
2013-03-29 15:20:00,60.7,53.0,30.03,South,182,0.0,6.0,77,0.00,,,0.01,,2013-03-29 22:20:00,
2013-03-29 15:30:00,60.9,53.0,30.03,ESE,116,2.0,7.0,76,0.00,,,0.01,,2013-03-29 22:30:00,
2013-03-29 15:40:00,57.7,52.0,30.02,ESE,121,5.0,7.0,82,0.00,,,0.01,,2013-03-29 22:40:00,
2013-03-29 15:50:00,58.6,54.0,30.01,SE,130,0.0,3.0,84,0.00,,,0.01,,2013-03-29 22:50:00,
2013-03-29 16:00:00,62.0,54.0,30.02,SE,130,0.0,3.0,75,0.00,,,0.01,,2013-03-29 23:00:00,
2013-03-29 16:10:00,58.5,51.0,30.02,SW,227,7.0,11.0,77,0.00,,,0.01,,2013-03-29 23:10:00,
2013-03-29 16:20:00,55.3,51.0,30.01,East,100,2.0,8.0,86,0.00,,,0.01,,2013-03-29 23:20:00,
2013-03-29 16:30:00,56.8,53.0,30.01,SE,127,7.0,7.0,88,0.00,,,0.01,,2013-03-29 23:30:00,
2013-03-29 16:40:00,56.8,52.0,30.01,ESE,109,4.0,10.0,83,0.00,,,0.01,,2013-03-29 23:40:00,
2013-03-29 16:50:00,56.3,52.0,30.01,SE,126,4.0,9.0,85,0.00,,,0.01,,2013-03-29 23:50:00,
2013-03-29 17:00:00,57.8,53.0,30.01,WSW,258,6.0,8.0,84,0.00,,,0.01,,2013-03-30 00:00:00,
2013-03-29 17:10:00,56.0,51.0,30.01,ESE,111,5.0,8.0,84,0.00,,,0.01,,2013-03-30 00:10:00,
2013-03-29 17:20:00,54.7,51.0,30.02,SW,236,0.0,12.0,87,0.00,,,0.01,,2013-03-30 00:20:00,
2013-03-29 17:30:00,54.4,51.0,30.02,SSW,200,2.0,7.0,89,0.00,,,0.01,,2013-03-30 00:30:00,
2013-03-29 17:40:00,53.7,51.0,30.02,SE,145,3.0,6.0,90,0.00,,,0.01,,2013-03-30 00:40:00,
2013-03-29 17:50:00,53.6,51.0,30.01,ESE,118,3.0,5.0,91,0.00,,,0.01,,2013-03-30 00:50:00,
2013-03-29 18:00:00,53.7,51.0,30.02,ESE,118,0.0,3.0,91,0.00,,,0.01,,2013-03-30 01:00:00,
2013-03-29 18:10:00,54.6,52.0,30.02,ESE,118,0.0,2.0,92,0.00,,,0.01,,2013-03-30 01:10:00,
2013-03-29 18:20:00,54.9,52.0,30.02,ESE,118,2.0,4.0,90,0.00,,,0.01,,2013-03-30 01:20:00,
2013-03-29 18:30:00,54.4,52.0,30.01,ESE,118,1.0,3.0,90,0.00,,,0.01,,2013-03-30 01:30:00,
2013-03-29 18:40:00,53.9,51.0,30.01,ESE,117,2.0,3.0,90,0.00,,,0.01,,2013-03-30 01:40:00,
2013-03-29 18:50:00,53.7,51.0,30.01,ESE,117,0.0,2.0,91,0.00,,,0.01,,2013-03-30 01:50:00,
2013-03-29 19:00:00,53.3,51.0,30.02,WSW,255,1.0,5.0,91,0.00,,,0.01,,2013-03-30 02:00:00,
2013-03-29 19:10:00,53.0,51.0,30.02,SW,233,0.0,4.0,92,0.00,,,0.01,,2013-03-30 02:10:00,
2013-03-29 19:20:00,52.8,51.0,30.01,South,171,2.0,2.0,92,0.00,,,0.01,,2013-03-30 02:20:00,
2013-03-29 19:30:00,52.8,51.0,30.01,South,171,0.0,0.0,93,0.00,,,0.01,,2013-03-30 02:30:00,
2013-03-29 19:40:00,52.9,51.0,30.01,South,171,2.0,2.0,93,0.00,,,0.01,,2013-03-30 02:40:00,
2013-03-29 19:50:00,53.0,51.0,30.01,South,171,1.0,3.0,93,0.00,,,0.01,,2013-03-30 02:50:00,
2013-03-29 20:00:00,53.0,51.0,30.01,South,171,1.0,2.0,93,0.00,,,0.01,,2013-03-30 03:00:00,
2013-03-29 20:10:00,52.9,51.0,30.01,South,171,0.0,2.0,93,0.00,,,0.01,,2013-03-30 03:10:00,
2013-03-29 20:20:00,52.8,51.0,30.02,South,171,0.0,1.0,93,0.00,,,0.01,,2013-03-30 03:20:00,
2013-03-29 20:30:00,52.5,51.0,30.03,SE,140,1.0,2.0,93,0.00,,,0.01,,2013-03-30 03:30:00,
2013-03-29 20:40:00,52.3,50.0,30.03,SSE,168,0.0,3.0,93,0.00,,,0.01,,2013-03-30 03:40:00,
2013-03-29 20:50:00,52.0,50.0,30.04,ESE,114,0.0,1.0,94,0.00,,,0.01,,2013-03-30 03:50:00,
2013-03-29 21:00:00,52.1,50.0,30.05,SE,132,0.0,2.0,94,0.00,,,0.01,,2013-03-30 04:00:00,
2013-03-29 21:10:00,51.8,50.0,30.05,ESE,107,1.0,4.0,94,0.00,,,0.01,,2013-03-30 04:10:00,
2013-03-29 21:20:00,51.7,50.0,30.05,ESE,107,0.0,2.0,94,0.00,,,0.01,,2013-03-30 04:20:00,
2013-03-29 21:30:00,51.8,50.0,30.06,ESE,108,2.0,3.0,94,0.00,,,0.01,,2013-03-30 04:30:00,
2013-03-29 21:40:00,51.9,50.0,30.05,East,86,0.0,1.0,94,0.00,,,0.01,,2013-03-30 04:40:00,
2013-03-29 21:50:00,51.8,50.0,30.06,SE,128,0.0,3.0,94,0.00,,,0.01,,2013-03-30 04:50:00,
2013-03-29 22:00:00,51.8,50.0,30.06,SE,125,2.0,3.0,95,0.00,,,0.01,,2013-03-30 05:00:00,
2013-03-29 22:10:00,51.5,50.0,30.05,East,96,0.0,2.0,94,0.00,,,0.01,,2013-03-30 05:10:00,
2013-03-29 22:20:00,51.5,50.0,30.05,East,96,0.0,0.0,94,0.00,,,0.01,,2013-03-30 05:20:00,
2013-03-29 22:30:00,51.6,50.0,30.05,East,96,0.0,1.0,95,0.00,,,0.01,,2013-03-30 05:30:00,
2013-03-29 22:40:00,51.7,50.0,30.05,East,96,0.0,1.0,95,0.00,,,0.01,,2013-03-30 05:40:00,
2013-03-29 22:50:00,51.9,51.0,30.05,SW,225,0.0,2.0,95,0.00,,,0.01,,2013-03-30 05:50:00,
2013-03-29 23:00:00,52.0,51.0,30.06,SSE,160,2.0,3.0,95,0.00,,,0.01,,2013-03-30 06:00:00,
2013-03-29 23:10:00,52.1,51.0,30.05,SSE,150,2.0,2.0,95,0.00,,,0.01,,2013-03-30 06:10:00,
2013-03-29 23:20:00,52.1,51.0,30.05,SSE,149,0.0,3.0,95,0.00,,,0.01,,2013-03-30 06:20:00,
2013-03-29 23:30:00,51.9,51.0,30.05,SSE,149,1.0,2.0,95,0.00,,,0.01,,2013-03-30 06:30:00,
2013-03-29 23:40:00,51.8,50.0,30.05,SSE,149,1.0,1.0,95,0.00,,,0.01,,2013-03-30 06:40:00,
2013-03-29 23:50:00,51.7,50.0,30.05,SSE,149,0.0,1.0,95,0.00,,,0.01,,2013-03-30 06:50:00,